sensor_id;sensor_type;location;lat;lon;timestamp;P1;durP1;ratioP1;P2;durP2;ratioP2
50104;SDS011;47690;39.202;-77.198;2023-05-20T00:01:09;5.63;;;2.40;;
50104;SDS011;47690;39.202;-77.198;2023-05-20T00:03:48;3.20;;;2.33;;
50104;SDS011;47690;39.202;-77.198;2023-05-20T00:06:31;4.65;;;2.40;;
50104;SDS011;47690;39.202;-77.198;2023-05-20T00:09:17;3.97;;;2.30;;
50104;SDS011;47690;39.202;-77.198;2023-05-20T00:11:56;5.07;;;2.10;;
50104;SDS011;47690;39.202;-77.198;2023-05-20T00:14:32;2.83;;;2.10;;
50104;SDS011;47690;39.202;-77.198;2023-05-20T00:17:17;5.55;;;2.30;;
50104;SDS011;47690;39.202;-77.198;2023-05-20T00:19:56;3.15;;;2.10;;
50104;SDS011;47690;39.202;-77.198;2023-05-20T00:22:49;2.65;;;2.10;;
50104;SDS011;47690;39.202;-77.198;2023-05-20T00:25:54;3.55;;;2.05;;
50104;SDS011;47690;39.202;-77.198;2023-05-20T00:29:56;2.23;;;2.00;;
50104;SDS011;47690;39.202;-77.198;2023-05-20T00:32:30;3.30;;;2.15;;
50104;SDS011;47690;39.202;-77.198;2023-05-20T00:50:13;2.72;;;1.92;;
50104;SDS011;47690;39.202;-77.198;2023-05-20T01:15:14;2.72;;;1.98;;
50104;SDS011;47690;39.202;-77.198;2023-05-20T01:19:34;4.00;;;2.20;;
50104;SDS011;47690;39.202;-77.198;2023-05-20T01:22:33;5.30;;;2.42;;
50104;SDS011;47690;39.202;-77.198;2023-05-20T01:25:44;3.03;;;2.30;;
50104;SDS011;47690;39.202;-77.198;2023-05-20T01:30:25;3.47;;;2.33;;
50104;SDS011;47690;39.202;-77.198;2023-05-20T01:33:55;5.82;;;2.42;;
50104;SDS011;47690;39.202;-77.198;2023-05-20T01:37:51;5.53;;;2.38;;
50104;SDS011;47690;39.202;-77.198;2023-05-20T01:41:16;3.10;;;2.30;;
50104;SDS011;47690;39.202;-77.198;2023-05-20T01:44:55;3.83;;;2.50;;
50104;SDS011;47690;39.202;-77.198;2023-05-20T01:49:20;3.20;;;2.30;;
50104;SDS011;47690;39.202;-77.198;2023-05-20T01:51:58;4.30;;;2.60;;
50104;SDS011;47690;39.202;-77.198;2023-05-20T01:55:29;3.47;;;2.20;;
50104;SDS011;47690;39.202;-77.198;2023-05-20T01:59:06;4.47;;;2.45;;
50104;SDS011;47690;39.202;-77.198;2023-05-20T02:03:10;3.50;;;2.40;;
50104;SDS011;47690;39.202;-77.198;2023-05-20T02:06:06;5.07;;;2.40;;
50104;SDS011;47690;39.202;-77.198;2023-05-20T02:13:29;5.22;;;2.42;;
50104;SDS011;47690;39.202;-77.198;2023-05-20T02:16:28;4.60;;;2.50;;
50104;SDS011;47690;39.202;-77.198;2023-05-20T02:19:25;4.95;;;2.40;;
50104;SDS011;47690;39.202;-77.198;2023-05-20T02:22:20;4.93;;;2.47;;
50104;SDS011;47690;39.202;-77.198;2023-05-20T02:24:56;3.33;;;2.78;;
50104;SDS011;47690;39.202;-77.198;2023-05-20T02:27:27;6.10;;;2.50;;
50104;SDS011;47690;39.202;-77.198;2023-05-20T02:30:08;2.83;;;2.15;;
50104;SDS011;47690;39.202;-77.198;2023-05-20T02:33:04;3.83;;;2.40;;
50104;SDS011;47690;39.202;-77.198;2023-05-20T02:35:55;3.60;;;2.53;;
50104;SDS011;47690;39.202;-77.198;2023-05-20T02:38:36;3.42;;;2.22;;
50104;SDS011;47690;39.202;-77.198;2023-05-20T02:41:31;6.63;;;2.58;;
50104;SDS011;47690;39.202;-77.198;2023-05-20T02:44:22;3.30;;;2.40;;
50104;SDS011;47690;39.202;-77.198;2023-05-20T02:47:02;4.10;;;2.40;;
50104;SDS011;47690;39.202;-77.198;2023-05-20T02:49:38;3.42;;;2.33;;
50104;SDS011;47690;39.202;-77.198;2023-05-20T02:52:29;5.38;;;2.55;;
50104;SDS011;47690;39.202;-77.198;2023-05-20T02:55:11;3.20;;;2.45;;
50104;SDS011;47690;39.202;-77.198;2023-05-20T02:58:13;2.60;;;2.35;;
50104;SDS011;47690;39.202;-77.198;2023-05-20T03:01:09;3.92;;;2.40;;
50104;SDS011;47690;39.202;-77.198;2023-05-20T03:03:52;4.30;;;2.40;;
50104;SDS011;47690;39.202;-77.198;2023-05-20T03:06:26;3.35;;;2.10;;
50104;SDS011;47690;39.202;-77.198;2023-05-20T03:09:04;4.47;;;2.25;;
50104;SDS011;47690;39.202;-77.198;2023-05-20T03:11:50;5.35;;;2.35;;
50104;SDS011;47690;39.202;-77.198;2023-05-20T03:14:34;5.35;;;2.50;;
50104;SDS011;47690;39.202;-77.198;2023-05-20T03:17:08;3.95;;;2.30;;
50104;SDS011;47690;39.202;-77.198;2023-05-20T03:20:00;6.20;;;2.60;;
50104;SDS011;47690;39.202;-77.198;2023-05-20T03:22:42;4.32;;;2.33;;
50104;SDS011;47690;39.202;-77.198;2023-05-20T03:25:23;3.20;;;2.35;;
50104;SDS011;47690;39.202;-77.198;2023-05-20T03:27:56;3.42;;;2.28;;
50104;SDS011;47690;39.202;-77.198;2023-05-20T03:30:50;4.18;;;2.50;;
50104;SDS011;47690;39.202;-77.198;2023-05-20T03:33:26;6.38;;;2.55;;
50104;SDS011;47690;39.202;-77.198;2023-05-20T03:36:02;4.00;;;2.60;;
50104;SDS011;47690;39.202;-77.198;2023-05-20T03:38:51;4.47;;;2.30;;
50104;SDS011;47690;39.202;-77.198;2023-05-20T03:41:34;5.47;;;2.40;;
50104;SDS011;47690;39.202;-77.198;2023-05-20T03:44:21;4.90;;;2.40;;
50104;SDS011;47690;39.202;-77.198;2023-05-20T03:46:58;6.00;;;2.33;;
50104;SDS011;47690;39.202;-77.198;2023-05-20T03:49:34;3.63;;;2.35;;
50104;SDS011;47690;39.202;-77.198;2023-05-20T03:52:08;2.42;;;2.17;;
50104;SDS011;47690;39.202;-77.198;2023-05-20T03:54:49;3.38;;;2.55;;
50104;SDS011;47690;39.202;-77.198;2023-05-20T03:57:28;3.72;;;2.50;;
50104;SDS011;47690;39.202;-77.198;2023-05-20T04:00:08;4.38;;;2.50;;
50104;SDS011;47690;39.202;-77.198;2023-05-20T04:02:58;2.65;;;2.40;;
50104;SDS011;47690;39.202;-77.198;2023-05-20T04:05:33;3.42;;;2.50;;
50104;SDS011;47690;39.202;-77.198;2023-05-20T04:08:17;3.28;;;2.00;;
50104;SDS011;47690;39.202;-77.198;2023-05-20T04:10:56;4.22;;;2.33;;
50104;SDS011;47690;39.202;-77.198;2023-05-20T04:13:42;3.03;;;2.28;;
50104;SDS011;47690;39.202;-77.198;2023-05-20T04:16:33;3.67;;;2.20;;
50104;SDS011;47690;39.202;-77.198;2023-05-20T04:19:22;4.35;;;2.65;;
50104;SDS011;47690;39.202;-77.198;2023-05-20T04:22:00;3.83;;;2.60;;
50104;SDS011;47690;39.202;-77.198;2023-05-20T04:24:39;3.55;;;2.40;;
50104;SDS011;47690;39.202;-77.198;2023-05-20T04:27:22;5.13;;;2.55;;
50104;SDS011;47690;39.202;-77.198;2023-05-20T04:30:05;3.85;;;2.60;;
50104;SDS011;47690;39.202;-77.198;2023-05-20T04:35:53;4.47;;;2.60;;
50104;SDS011;47690;39.202;-77.198;2023-05-20T04:38:37;3.35;;;2.47;;
50104;SDS011;47690;39.202;-77.198;2023-05-20T04:41:20;5.55;;;2.40;;
50104;SDS011;47690;39.202;-77.198;2023-05-20T04:43:54;3.50;;;2.40;;
50104;SDS011;47690;39.202;-77.198;2023-05-20T04:46:54;3.95;;;2.53;;
50104;SDS011;47690;39.202;-77.198;2023-05-20T04:49:30;5.68;;;2.65;;
50104;SDS011;47690;39.202;-77.198;2023-05-20T04:52:08;3.60;;;2.70;;
50104;SDS011;47690;39.202;-77.198;2023-05-20T04:54:41;4.10;;;2.42;;
50104;SDS011;47690;39.202;-77.198;2023-05-20T04:57:18;4.07;;;2.85;;
50104;SDS011;47690;39.202;-77.198;2023-05-20T04:59:50;5.80;;;2.92;;
50104;SDS011;47690;39.202;-77.198;2023-05-20T05:02:29;3.42;;;2.42;;
50104;SDS011;47690;39.202;-77.198;2023-05-20T05:05:00;4.07;;;2.70;;
50104;SDS011;47690;39.202;-77.198;2023-05-20T05:08:02;4.45;;;2.50;;
50104;SDS011;47690;39.202;-77.198;2023-05-20T05:10:57;2.90;;;2.33;;
50104;SDS011;47690;39.202;-77.198;2023-05-20T05:13:34;3.45;;;2.40;;
50104;SDS011;47690;39.202;-77.198;2023-05-20T05:16:07;3.53;;;2.72;;
50104;SDS011;47690;39.202;-77.198;2023-05-20T05:19:05;3.53;;;2.47;;
50104;SDS011;47690;39.202;-77.198;2023-05-20T05:21:53;3.00;;;2.40;;
50104;SDS011;47690;39.202;-77.198;2023-05-20T05:24:26;4.68;;;2.50;;
50104;SDS011;47690;39.202;-77.198;2023-05-20T05:27:05;2.80;;;2.08;;
50104;SDS011;47690;39.202;-77.198;2023-05-20T05:29:49;3.97;;;2.60;;
50104;SDS011;47690;39.202;-77.198;2023-05-20T05:34:58;4.05;;;2.47;;
50104;SDS011;47690;39.202;-77.198;2023-05-20T05:37:36;5.63;;;2.53;;
50104;SDS011;47690;39.202;-77.198;2023-05-20T05:40:18;3.97;;;2.33;;
50104;SDS011;47690;39.202;-77.198;2023-05-20T05:42:49;3.13;;;2.40;;
50104;SDS011;47690;39.202;-77.198;2023-05-20T05:45:27;3.78;;;2.40;;
50104;SDS011;47690;39.202;-77.198;2023-05-20T05:48:00;2.75;;;2.25;;
50104;SDS011;47690;39.202;-77.198;2023-05-20T05:53:06;3.55;;;2.40;;
50104;SDS011;47690;39.202;-77.198;2023-05-20T05:55:51;2.50;;;2.15;;
50104;SDS011;47690;39.202;-77.198;2023-05-20T05:58:32;3.05;;;2.50;;
50104;SDS011;47690;39.202;-77.198;2023-05-20T06:01:10;3.40;;;2.42;;
50104;SDS011;47690;39.202;-77.198;2023-05-20T06:03:50;2.92;;;2.40;;
50104;SDS011;47690;39.202;-77.198;2023-05-20T06:06:22;6.38;;;2.60;;
50104;SDS011;47690;39.202;-77.198;2023-05-20T06:09:58;4.20;;;2.40;;
50104;SDS011;47690;39.202;-77.198;2023-05-20T06:12:32;3.92;;;2.55;;
50104;SDS011;47690;39.202;-77.198;2023-05-20T06:15:14;4.18;;;2.67;;
50104;SDS011;47690;39.202;-77.198;2023-05-20T06:18:26;3.35;;;2.50;;
50104;SDS011;47690;39.202;-77.198;2023-05-20T06:21:09;3.00;;;2.50;;
50104;SDS011;47690;39.202;-77.198;2023-05-20T06:23:52;3.63;;;2.40;;
50104;SDS011;47690;39.202;-77.198;2023-05-20T06:26:29;2.80;;;2.25;;
50104;SDS011;47690;39.202;-77.198;2023-05-20T06:29:01;2.83;;;2.28;;
50104;SDS011;47690;39.202;-77.198;2023-05-20T06:31:58;4.07;;;2.45;;
50104;SDS011;47690;39.202;-77.198;2023-05-20T06:35:53;5.22;;;2.65;;
50104;SDS011;47690;39.202;-77.198;2023-05-20T06:38:30;4.90;;;2.42;;
50104;SDS011;47690;39.202;-77.198;2023-05-20T06:41:09;3.97;;;2.28;;
50104;SDS011;47690;39.202;-77.198;2023-05-20T06:43:56;4.35;;;2.40;;
50104;SDS011;47690;39.202;-77.198;2023-05-20T06:46:49;5.38;;;2.42;;
50104;SDS011;47690;39.202;-77.198;2023-05-20T06:49:26;3.85;;;2.53;;
50104;SDS011;47690;39.202;-77.198;2023-05-20T06:52:02;3.17;;;2.38;;
50104;SDS011;47690;39.202;-77.198;2023-05-20T06:55:20;4.28;;;2.60;;
50104;SDS011;47690;39.202;-77.198;2023-05-20T06:57:58;4.07;;;2.63;;
50104;SDS011;47690;39.202;-77.198;2023-05-20T07:00:28;3.25;;;2.45;;
50104;SDS011;47690;39.202;-77.198;2023-05-20T07:03:00;2.85;;;2.40;;
50104;SDS011;47690;39.202;-77.198;2023-05-20T07:05:37;3.10;;;2.30;;
50104;SDS011;47690;39.202;-77.198;2023-05-20T07:08:22;2.50;;;2.20;;
50104;SDS011;47690;39.202;-77.198;2023-05-20T07:10:58;6.28;;;2.70;;
50104;SDS011;47690;39.202;-77.198;2023-05-20T07:13:32;3.35;;;2.05;;
50104;SDS011;47690;39.202;-77.198;2023-05-20T07:16:08;5.00;;;2.22;;
50104;SDS011;47690;39.202;-77.198;2023-05-20T07:18:49;2.83;;;2.40;;
50104;SDS011;47690;39.202;-77.198;2023-05-20T07:24:18;3.33;;;2.30;;
50104;SDS011;47690;39.202;-77.198;2023-05-20T07:26:58;2.67;;;2.30;;
50104;SDS011;47690;39.202;-77.198;2023-05-20T07:29:40;2.85;;;2.40;;
50104;SDS011;47690;39.202;-77.198;2023-05-20T07:32:18;4.18;;;2.50;;
50104;SDS011;47690;39.202;-77.198;2023-05-20T07:34:52;3.80;;;2.28;;
50104;SDS011;47690;39.202;-77.198;2023-05-20T07:37:25;3.15;;;2.40;;
50104;SDS011;47690;39.202;-77.198;2023-05-20T07:40:02;3.67;;;2.42;;
50104;SDS011;47690;39.202;-77.198;2023-05-20T07:42:56;3.83;;;2.40;;
50104;SDS011;47690;39.202;-77.198;2023-05-20T07:45:33;3.17;;;2.17;;
50104;SDS011;47690;39.202;-77.198;2023-05-20T07:48:06;3.40;;;2.70;;
50104;SDS011;47690;39.202;-77.198;2023-05-20T07:50:49;4.38;;;2.55;;
50104;SDS011;47690;39.202;-77.198;2023-05-20T07:53:30;3.50;;;2.40;;
50104;SDS011;47690;39.202;-77.198;2023-05-20T07:56:21;3.97;;;2.40;;
50104;SDS011;47690;39.202;-77.198;2023-05-20T07:58:55;3.42;;;2.60;;
50104;SDS011;47690;39.202;-77.198;2023-05-20T08:01:34;4.70;;;2.55;;
50104;SDS011;47690;39.202;-77.198;2023-05-20T08:04:10;4.07;;;2.42;;
50104;SDS011;47690;39.202;-77.198;2023-05-20T08:06:48;3.35;;;2.60;;
50104;SDS011;47690;39.202;-77.198;2023-05-20T08:09:58;2.72;;;2.25;;
50104;SDS011;47690;39.202;-77.198;2023-05-20T08:12:28;3.45;;;2.58;;
50104;SDS011;47690;39.202;-77.198;2023-05-20T08:14:57;3.53;;;2.30;;
50104;SDS011;47690;39.202;-77.198;2023-05-20T08:17:26;3.92;;;2.50;;
50104;SDS011;47690;39.202;-77.198;2023-05-20T08:19:58;5.32;;;2.50;;
50104;SDS011;47690;39.202;-77.198;2023-05-20T08:22:28;3.92;;;2.40;;
50104;SDS011;47690;39.202;-77.198;2023-05-20T08:24:57;4.03;;;2.40;;
50104;SDS011;47690;39.202;-77.198;2023-05-20T08:27:25;3.45;;;2.15;;
50104;SDS011;47690;39.202;-77.198;2023-05-20T08:29:56;3.45;;;2.50;;
50104;SDS011;47690;39.202;-77.198;2023-05-20T08:32:28;2.63;;;2.30;;
50104;SDS011;47690;39.202;-77.198;2023-05-20T08:34:57;3.50;;;2.45;;
50104;SDS011;47690;39.202;-77.198;2023-05-20T08:37:28;4.20;;;2.75;;
50104;SDS011;47690;39.202;-77.198;2023-05-20T08:39:57;3.45;;;2.50;;
50104;SDS011;47690;39.202;-77.198;2023-05-20T08:42:26;3.22;;;2.38;;
50104;SDS011;47690;39.202;-77.198;2023-05-20T08:44:56;4.53;;;2.42;;
50104;SDS011;47690;39.202;-77.198;2023-05-20T08:47:28;3.55;;;2.72;;
50104;SDS011;47690;39.202;-77.198;2023-05-20T08:49:58;4.72;;;2.50;;
50104;SDS011;47690;39.202;-77.198;2023-05-20T08:52:26;4.55;;;2.60;;
50104;SDS011;47690;39.202;-77.198;2023-05-20T08:55:00;2.65;;;2.17;;
50104;SDS011;47690;39.202;-77.198;2023-05-20T08:57:30;3.25;;;2.42;;
50104;SDS011;47690;39.202;-77.198;2023-05-20T09:00:01;2.30;;;2.10;;
50104;SDS011;47690;39.202;-77.198;2023-05-20T09:02:37;2.72;;;2.40;;
50104;SDS011;47690;39.202;-77.198;2023-05-20T09:05:09;2.70;;;2.20;;
50104;SDS011;47690;39.202;-77.198;2023-05-20T09:07:38;4.63;;;2.55;;
50104;SDS011;47690;39.202;-77.198;2023-05-20T09:10:09;3.35;;;2.33;;
50104;SDS011;47690;39.202;-77.198;2023-05-20T09:12:39;3.08;;;2.60;;
50104;SDS011;47690;39.202;-77.198;2023-05-20T09:15:08;5.18;;;2.40;;
50104;SDS011;47690;39.202;-77.198;2023-05-20T09:17:37;4.88;;;2.30;;
50104;SDS011;47690;39.202;-77.198;2023-05-20T09:20:09;3.53;;;2.42;;
50104;SDS011;47690;39.202;-77.198;2023-05-20T09:22:38;3.90;;;2.10;;
50104;SDS011;47690;39.202;-77.198;2023-05-20T09:25:07;4.10;;;2.60;;
50104;SDS011;47690;39.202;-77.198;2023-05-20T09:27:38;2.95;;;2.40;;
50104;SDS011;47690;39.202;-77.198;2023-05-20T09:30:09;2.50;;;2.20;;
50104;SDS011;47690;39.202;-77.198;2023-05-20T09:32:40;2.67;;;2.28;;
50104;SDS011;47690;39.202;-77.198;2023-05-20T09:35:11;3.05;;;2.47;;
50104;SDS011;47690;39.202;-77.198;2023-05-20T09:37:45;3.03;;;2.20;;
50104;SDS011;47690;39.202;-77.198;2023-05-20T09:40:15;3.13;;;2.22;;
50104;SDS011;47690;39.202;-77.198;2023-05-20T09:43:07;2.58;;;2.08;;
50104;SDS011;47690;39.202;-77.198;2023-05-20T09:45:37;3.10;;;2.30;;
50104;SDS011;47690;39.202;-77.198;2023-05-20T09:48:06;3.00;;;2.42;;
50104;SDS011;47690;39.202;-77.198;2023-05-20T09:50:38;3.03;;;2.30;;
50104;SDS011;47690;39.202;-77.198;2023-05-20T09:53:07;4.95;;;2.65;;
50104;SDS011;47690;39.202;-77.198;2023-05-20T09:55:40;4.45;;;2.72;;
50104;SDS011;47690;39.202;-77.198;2023-05-20T09:58:10;9.80;;;2.72;;
50104;SDS011;47690;39.202;-77.198;2023-05-20T10:00:42;10.77;;;3.25;;
50104;SDS011;47690;39.202;-77.198;2023-05-20T10:03:12;7.80;;;3.22;;
50104;SDS011;47690;39.202;-77.198;2023-05-20T10:05:55;6.20;;;3.40;;
50104;SDS011;47690;39.202;-77.198;2023-05-20T10:19:47;6.13;;;3.17;;
50104;SDS011;47690;39.202;-77.198;2023-05-20T10:22:25;6.40;;;3.13;;
50104;SDS011;47690;39.202;-77.198;2023-05-20T10:25:04;5.50;;;3.50;;
50104;SDS011;47690;39.202;-77.198;2023-05-20T10:27:42;9.00;;;3.58;;
50104;SDS011;47690;39.202;-77.198;2023-05-20T10:30:17;5.85;;;3.33;;
50104;SDS011;47690;39.202;-77.198;2023-05-20T10:32:51;6.25;;;3.42;;
50104;SDS011;47690;39.202;-77.198;2023-05-20T10:35:24;5.10;;;3.65;;
50104;SDS011;47690;39.202;-77.198;2023-05-20T10:37:54;7.05;;;3.75;;
50104;SDS011;47690;39.202;-77.198;2023-05-20T10:40:38;10.10;;;4.32;;
50104;SDS011;47690;39.202;-77.198;2023-05-20T10:43:08;6.30;;;4.35;;
50104;SDS011;47690;39.202;-77.198;2023-05-20T10:45:49;7.43;;;4.50;;
50104;SDS011;47690;39.202;-77.198;2023-05-20T10:48:30;6.68;;;3.97;;
50104;SDS011;47690;39.202;-77.198;2023-05-20T10:51:00;5.20;;;3.70;;
50104;SDS011;47690;39.202;-77.198;2023-05-20T10:53:41;6.33;;;4.03;;
50104;SDS011;47690;39.202;-77.198;2023-05-20T10:56:20;6.35;;;4.22;;
50104;SDS011;47690;39.202;-77.198;2023-05-20T10:58:51;7.55;;;4.30;;
50104;SDS011;47690;39.202;-77.198;2023-05-20T11:01:25;6.75;;;3.72;;
50104;SDS011;47690;39.202;-77.198;2023-05-20T11:03:54;5.65;;;3.72;;
50104;SDS011;47690;39.202;-77.198;2023-05-20T11:06:26;5.85;;;4.00;;
50104;SDS011;47690;39.202;-77.198;2023-05-20T11:09:02;5.55;;;4.10;;
50104;SDS011;47690;39.202;-77.198;2023-05-20T11:11:33;5.03;;;3.72;;
50104;SDS011;47690;39.202;-77.198;2023-05-20T11:14:02;6.38;;;4.28;;
50104;SDS011;47690;39.202;-77.198;2023-05-20T11:16:31;7.28;;;4.43;;
50104;SDS011;47690;39.202;-77.198;2023-05-20T11:19:01;5.85;;;3.90;;
50104;SDS011;47690;39.202;-77.198;2023-05-20T11:21:30;6.10;;;4.45;;
50104;SDS011;47690;39.202;-77.198;2023-05-20T11:23:59;5.45;;;4.00;;
50104;SDS011;47690;39.202;-77.198;2023-05-20T11:26:28;6.90;;;4.10;;
50104;SDS011;47690;39.202;-77.198;2023-05-20T11:28:57;5.03;;;4.05;;
50104;SDS011;47690;39.202;-77.198;2023-05-20T11:31:31;5.82;;;4.05;;
50104;SDS011;47690;39.202;-77.198;2023-05-20T11:34:01;5.82;;;3.92;;
50104;SDS011;47690;39.202;-77.198;2023-05-20T11:36:31;5.93;;;4.55;;
50104;SDS011;47690;39.202;-77.198;2023-05-20T11:38:59;6.10;;;4.20;;
50104;SDS011;47690;39.202;-77.198;2023-05-20T11:41:28;5.93;;;4.72;;
50104;SDS011;47690;39.202;-77.198;2023-05-20T11:43:57;6.93;;;4.75;;
50104;SDS011;47690;39.202;-77.198;2023-05-20T11:46:26;6.00;;;4.68;;
50104;SDS011;47690;39.202;-77.198;2023-05-20T11:48:56;5.75;;;4.60;;
50104;SDS011;47690;39.202;-77.198;2023-05-20T11:51:26;6.60;;;4.60;;
50104;SDS011;47690;39.202;-77.198;2023-05-20T11:54:02;7.10;;;4.90;;
50104;SDS011;47690;39.202;-77.198;2023-05-20T11:56:34;5.88;;;4.45;;
50104;SDS011;47690;39.202;-77.198;2023-05-20T11:59:05;5.65;;;4.70;;
50104;SDS011;47690;39.202;-77.198;2023-05-20T12:01:37;5.63;;;4.60;;
50104;SDS011;47690;39.202;-77.198;2023-05-20T12:04:13;6.57;;;4.85;;
50104;SDS011;47690;39.202;-77.198;2023-05-20T12:06:42;6.55;;;4.90;;
50104;SDS011;47690;39.202;-77.198;2023-05-20T12:09:11;6.63;;;4.80;;
50104;SDS011;47690;39.202;-77.198;2023-05-20T12:11:44;7.00;;;5.05;;
50104;SDS011;47690;39.202;-77.198;2023-05-20T12:14:14;8.25;;;4.97;;
50104;SDS011;47690;39.202;-77.198;2023-05-20T12:16:45;6.32;;;4.60;;
50104;SDS011;47690;39.202;-77.198;2023-05-20T12:19:14;6.53;;;4.78;;
50104;SDS011;47690;39.202;-77.198;2023-05-20T12:21:44;6.63;;;4.78;;
50104;SDS011;47690;39.202;-77.198;2023-05-20T12:24:14;6.85;;;4.82;;
50104;SDS011;47690;39.202;-77.198;2023-05-20T12:26:43;5.60;;;4.60;;
50104;SDS011;47690;39.202;-77.198;2023-05-20T12:29:12;6.18;;;4.78;;
50104;SDS011;47690;39.202;-77.198;2023-05-20T12:31:42;8.10;;;5.15;;
50104;SDS011;47690;39.202;-77.198;2023-05-20T12:34:13;7.72;;;4.82;;
50104;SDS011;47690;39.202;-77.198;2023-05-20T12:36:42;6.75;;;5.28;;
50104;SDS011;47690;39.202;-77.198;2023-05-20T12:39:12;6.75;;;4.80;;
50104;SDS011;47690;39.202;-77.198;2023-05-20T12:41:42;7.15;;;5.10;;
50104;SDS011;47690;39.202;-77.198;2023-05-20T12:44:13;7.13;;;4.70;;
50104;SDS011;47690;39.202;-77.198;2023-05-20T12:46:43;5.65;;;4.38;;
50104;SDS011;47690;39.202;-77.198;2023-05-20T12:49:14;6.50;;;4.75;;
50104;SDS011;47690;39.202;-77.198;2023-05-20T12:51:43;7.32;;;4.45;;
50104;SDS011;47690;39.202;-77.198;2023-05-20T12:54:12;5.68;;;4.32;;
50104;SDS011;47690;39.202;-77.198;2023-05-20T12:56:42;6.18;;;4.57;;
50104;SDS011;47690;39.202;-77.198;2023-05-20T12:59:14;5.82;;;4.20;;
50104;SDS011;47690;39.202;-77.198;2023-05-20T13:01:44;6.07;;;4.40;;
50104;SDS011;47690;39.202;-77.198;2023-05-20T13:04:14;5.68;;;4.63;;
50104;SDS011;47690;39.202;-77.198;2023-05-20T13:06:43;5.32;;;4.13;;
50104;SDS011;47690;39.202;-77.198;2023-05-20T13:09:12;6.30;;;3.90;;
50104;SDS011;47690;39.202;-77.198;2023-05-20T13:11:41;6.05;;;3.95;;
50104;SDS011;47690;39.202;-77.198;2023-05-20T13:14:10;6.00;;;4.70;;
50104;SDS011;47690;39.202;-77.198;2023-05-20T13:16:39;6.32;;;4.78;;
50104;SDS011;47690;39.202;-77.198;2023-05-20T13:19:10;4.80;;;4.10;;
50104;SDS011;47690;39.202;-77.198;2023-05-20T13:21:42;6.38;;;4.18;;
50104;SDS011;47690;39.202;-77.198;2023-05-20T13:24:11;5.90;;;4.35;;
50104;SDS011;47690;39.202;-77.198;2023-05-20T13:26:40;6.05;;;4.20;;
50104;SDS011;47690;39.202;-77.198;2023-05-20T13:29:09;5.95;;;3.63;;
50104;SDS011;47690;39.202;-77.198;2023-05-20T13:31:37;5.80;;;3.72;;
50104;SDS011;47690;39.202;-77.198;2023-05-20T13:34:09;5.45;;;3.75;;
50104;SDS011;47690;39.202;-77.198;2023-05-20T13:36:38;5.00;;;3.83;;
50104;SDS011;47690;39.202;-77.198;2023-05-20T13:39:07;5.22;;;3.90;;
50104;SDS011;47690;39.202;-77.198;2023-05-20T13:41:36;4.45;;;3.63;;
50104;SDS011;47690;39.202;-77.198;2023-05-20T13:44:05;4.63;;;3.35;;
50104;SDS011;47690;39.202;-77.198;2023-05-20T13:46:34;6.45;;;3.60;;
50104;SDS011;47690;39.202;-77.198;2023-05-20T13:49:03;6.00;;;3.47;;
50104;SDS011;47690;39.202;-77.198;2023-05-20T13:51:33;5.10;;;3.20;;
50104;SDS011;47690;39.202;-77.198;2023-05-20T13:54:02;4.82;;;3.22;;
50104;SDS011;47690;39.202;-77.198;2023-05-20T13:56:30;3.55;;;3.13;;
50104;SDS011;47690;39.202;-77.198;2023-05-20T13:59:00;5.90;;;3.78;;
50104;SDS011;47690;39.202;-77.198;2023-05-20T14:01:31;4.68;;;3.25;;
50104;SDS011;47690;39.202;-77.198;2023-05-20T14:04:01;4.20;;;3.30;;
50104;SDS011;47690;39.202;-77.198;2023-05-20T14:06:30;4.00;;;2.95;;
50104;SDS011;47690;39.202;-77.198;2023-05-20T14:09:01;7.43;;;3.15;;
50104;SDS011;47690;39.202;-77.198;2023-05-20T14:11:30;4.65;;;3.50;;
50104;SDS011;47690;39.202;-77.198;2023-05-20T14:14:00;4.25;;;3.00;;
50104;SDS011;47690;39.202;-77.198;2023-05-20T14:16:29;5.35;;;3.20;;
50104;SDS011;47690;39.202;-77.198;2023-05-20T14:18:59;4.43;;;2.90;;
50104;SDS011;47690;39.202;-77.198;2023-05-20T14:21:28;4.60;;;3.22;;
50104;SDS011;47690;39.202;-77.198;2023-05-20T14:23:57;4.22;;;3.00;;
50104;SDS011;47690;39.202;-77.198;2023-05-20T14:26:28;3.67;;;3.10;;
50104;SDS011;47690;39.202;-77.198;2023-05-20T14:28:57;4.05;;;3.28;;
50104;SDS011;47690;39.202;-77.198;2023-05-20T14:31:26;3.85;;;3.15;;
50104;SDS011;47690;39.202;-77.198;2023-05-20T14:33:54;3.80;;;3.08;;
50104;SDS011;47690;39.202;-77.198;2023-05-20T14:36:23;3.33;;;2.83;;
50104;SDS011;47690;39.202;-77.198;2023-05-20T14:38:53;4.53;;;2.90;;
50104;SDS011;47690;39.202;-77.198;2023-05-20T14:41:21;4.30;;;3.08;;
50104;SDS011;47690;39.202;-77.198;2023-05-20T14:43:50;4.47;;;3.50;;
50104;SDS011;47690;39.202;-77.198;2023-05-20T14:46:19;4.45;;;3.10;;
50104;SDS011;47690;39.202;-77.198;2023-05-20T14:48:50;4.32;;;3.08;;
50104;SDS011;47690;39.202;-77.198;2023-05-20T14:51:19;4.10;;;3.33;;
50104;SDS011;47690;39.202;-77.198;2023-05-20T14:53:47;3.92;;;3.05;;
50104;SDS011;47690;39.202;-77.198;2023-05-20T14:56:16;5.30;;;3.20;;
50104;SDS011;47690;39.202;-77.198;2023-05-20T14:58:45;4.00;;;2.80;;
50104;SDS011;47690;39.202;-77.198;2023-05-20T15:01:13;4.70;;;3.15;;
50104;SDS011;47690;39.202;-77.198;2023-05-20T15:03:43;4.95;;;3.20;;
50104;SDS011;47690;39.202;-77.198;2023-05-20T15:06:12;3.80;;;3.15;;
50104;SDS011;47690;39.202;-77.198;2023-05-20T15:08:44;5.13;;;3.40;;
50104;SDS011;47690;39.202;-77.198;2023-05-20T15:11:23;3.42;;;2.88;;
50104;SDS011;47690;39.202;-77.198;2023-05-20T15:13:53;4.18;;;3.08;;
50104;SDS011;47690;39.202;-77.198;2023-05-20T15:16:22;4.05;;;3.20;;
50104;SDS011;47690;39.202;-77.198;2023-05-20T15:18:51;3.97;;;3.22;;
50104;SDS011;47690;39.202;-77.198;2023-05-20T15:21:20;5.97;;;3.00;;
50104;SDS011;47690;39.202;-77.198;2023-05-20T15:24:13;4.18;;;3.10;;
50104;SDS011;47690;39.202;-77.198;2023-05-20T15:26:41;4.53;;;3.17;;
50104;SDS011;47690;39.202;-77.198;2023-05-20T15:29:12;4.28;;;3.00;;
50104;SDS011;47690;39.202;-77.198;2023-05-20T15:31:40;4.28;;;3.22;;
50104;SDS011;47690;39.202;-77.198;2023-05-20T15:34:20;5.20;;;3.20;;
50104;SDS011;47690;39.202;-77.198;2023-05-20T15:37:22;3.92;;;3.00;;
50104;SDS011;47690;39.202;-77.198;2023-05-20T15:39:50;4.20;;;3.03;;
50104;SDS011;47690;39.202;-77.198;2023-05-20T15:42:23;4.57;;;3.03;;
50104;SDS011;47690;39.202;-77.198;2023-05-20T15:44:52;3.47;;;2.85;;
50104;SDS011;47690;39.202;-77.198;2023-05-20T15:47:21;4.55;;;3.00;;
50104;SDS011;47690;39.202;-77.198;2023-05-20T15:49:50;4.68;;;3.15;;
50104;SDS011;47690;39.202;-77.198;2023-05-20T15:52:18;5.18;;;3.38;;
50104;SDS011;47690;39.202;-77.198;2023-05-20T15:54:47;3.67;;;3.08;;
50104;SDS011;47690;39.202;-77.198;2023-05-20T15:57:15;4.30;;;3.20;;
50104;SDS011;47690;39.202;-77.198;2023-05-20T15:59:44;4.70;;;3.20;;
50104;SDS011;47690;39.202;-77.198;2023-05-20T16:02:13;5.38;;;3.25;;
50104;SDS011;47690;39.202;-77.198;2023-05-20T16:04:43;4.38;;;3.15;;
50104;SDS011;47690;39.202;-77.198;2023-05-20T16:07:13;4.60;;;3.35;;
50104;SDS011;47690;39.202;-77.198;2023-05-20T16:09:42;3.50;;;3.20;;
50104;SDS011;47690;39.202;-77.198;2023-05-20T16:12:10;4.63;;;3.22;;
50104;SDS011;47690;39.202;-77.198;2023-05-20T16:14:40;4.38;;;3.38;;
50104;SDS011;47690;39.202;-77.198;2023-05-20T16:17:10;5.35;;;3.67;;
50104;SDS011;47690;39.202;-77.198;2023-05-20T16:19:41;4.30;;;3.30;;
50104;SDS011;47690;39.202;-77.198;2023-05-20T16:22:10;4.70;;;3.42;;
50104;SDS011;47690;39.202;-77.198;2023-05-20T16:24:41;5.47;;;3.45;;
50104;SDS011;47690;39.202;-77.198;2023-05-20T16:27:10;4.55;;;3.22;;
50104;SDS011;47690;39.202;-77.198;2023-05-20T16:29:38;3.58;;;3.13;;
50104;SDS011;47690;39.202;-77.198;2023-05-20T16:32:07;4.05;;;3.17;;